sensor_id;sensor_type;location;lat;lon;timestamp;temperature;humidity
7028;DHT22;3555;53.248;10.336;2023-10-19T00:02:06;7.40;80.80
7028;DHT22;3555;53.248;10.336;2023-10-19T00:04:34;7.40;94.50
7028;DHT22;3555;53.248;10.336;2023-10-19T00:07:02;7.40;1.00
7028;DHT22;3555;53.248;10.336;2023-10-19T00:09:30;7.40;1.00
7028;DHT22;3555;53.248;10.336;2023-10-19T00:12:03;7.40;1.00
7028;DHT22;3555;53.248;10.336;2023-10-19T00:14:31;7.40;1.00
7028;DHT22;3555;53.248;10.336;2023-10-19T00:16:58;7.40;1.00
7028;DHT22;3555;53.248;10.336;2023-10-19T00:19:33;7.40;1.00
7028;DHT22;3555;53.248;10.336;2023-10-19T00:22:05;7.40;1.00
7028;DHT22;3555;53.248;10.336;2023-10-19T00:24:36;7.40;1.00
7028;DHT22;3555;53.248;10.336;2023-10-19T00:27:02;7.40;1.00
7028;DHT22;3555;53.248;10.336;2023-10-19T00:29:40;7.40;1.00
7028;DHT22;3555;53.248;10.336;2023-10-19T00:32:07;7.40;1.00
7028;DHT22;3555;53.248;10.336;2023-10-19T00:34:41;7.40;1.00
7028;DHT22;3555;53.248;10.336;2023-10-19T00:37:16;7.50;1.00
7028;DHT22;3555;53.248;10.336;2023-10-19T00:39:46;7.40;1.00
7028;DHT22;3555;53.248;10.336;2023-10-19T00:42:19;7.40;1.00
7028;DHT22;3555;53.248;10.336;2023-10-19T00:44:51;7.40;1.00
7028;DHT22;3555;53.248;10.336;2023-10-19T00:47:26;7.40;1.00
7028;DHT22;3555;53.248;10.336;2023-10-19T00:50:00;7.40;99.90
7028;DHT22;3555;53.248;10.336;2023-10-19T00:52:31;7.50;1.00
7028;DHT22;3555;53.248;10.336;2023-10-19T00:55:07;7.40;1.00
7028;DHT22;3555;53.248;10.336;2023-10-19T00:57:39;7.50;90.80
7028;DHT22;3555;53.248;10.336;2023-10-19T01:00:12;7.40;1.00
7028;DHT22;3555;53.248;10.336;2023-10-19T01:02:47;7.40;99.90
7028;DHT22;3555;53.248;10.336;2023-10-19T01:05:19;7.40;99.90
7028;DHT22;3555;53.248;10.336;2023-10-19T01:07:48;7.40;99.90
7028;DHT22;3555;53.248;10.336;2023-10-19T01:10:22;7.40;1.00
7028;DHT22;3555;53.248;10.336;2023-10-19T01:12:50;7.50;99.90
7028;DHT22;3555;53.248;10.336;2023-10-19T01:15:19;7.40;64.20
7028;DHT22;3555;53.248;10.336;2023-10-19T01:17:51;7.50;99.90
7028;DHT22;3555;53.248;10.336;2023-10-19T01:20:20;7.50;99.90
7028;DHT22;3555;53.248;10.336;2023-10-19T01:22:53;7.40;99.90
7028;DHT22;3555;53.248;10.336;2023-10-19T01:25:32;7.40;99.90
7028;DHT22;3555;53.248;10.336;2023-10-19T01:28:06;7.40;1.00
7028;DHT22;3555;53.248;10.336;2023-10-19T01:30:34;7.40;99.90
7028;DHT22;3555;53.248;10.336;2023-10-19T01:33:02;7.50;1.00
7028;DHT22;3555;53.248;10.336;2023-10-19T01:35:30;7.40;99.90
7028;DHT22;3555;53.248;10.336;2023-10-19T01:38:19;7.50;99.90
7028;DHT22;3555;53.248;10.336;2023-10-19T01:40:45;7.50;99.90
7028;DHT22;3555;53.248;10.336;2023-10-19T01:43:14;7.50;99.90
7028;DHT22;3555;53.248;10.336;2023-10-19T01:45:46;7.40;99.90
7028;DHT22;3555;53.248;10.336;2023-10-19T01:48:13;7.40;1.00
7028;DHT22;3555;53.248;10.336;2023-10-19T01:50:40;7.40;1.00
7028;DHT22;3555;53.248;10.336;2023-10-19T01:53:08;7.50;1.00
7028;DHT22;3555;53.248;10.336;2023-10-19T01:55:42;7.50;1.00
7028;DHT22;3555;53.248;10.336;2023-10-19T01:58:09;7.50;1.00
7028;DHT22;3555;53.248;10.336;2023-10-19T02:00:35;7.50;99.90
7028;DHT22;3555;53.248;10.336;2023-10-19T02:03:07;7.50;99.90
7028;DHT22;3555;53.248;10.336;2023-10-19T02:05:33;7.50;1.00
7028;DHT22;3555;53.248;10.336;2023-10-19T02:08:05;7.50;99.90
7028;DHT22;3555;53.248;10.336;2023-10-19T02:10:33;7.50;1.00
7028;DHT22;3555;53.248;10.336;2023-10-19T02:13:01;7.50;1.00
7028;DHT22;3555;53.248;10.336;2023-10-19T02:15:32;7.50;99.90
7028;DHT22;3555;53.248;10.336;2023-10-19T02:18:01;7.60;60.30
7028;DHT22;3555;53.248;10.336;2023-10-19T02:20:28;7.50;99.90
7028;DHT22;3555;53.248;10.336;2023-10-19T02:22:55;7.50;1.00
7028;DHT22;3555;53.248;10.336;2023-10-19T02:25:23;7.60;1.00
7028;DHT22;3555;53.248;10.336;2023-10-19T02:27:51;7.50;1.00
7028;DHT22;3555;53.248;10.336;2023-10-19T02:30:19;7.50;1.00
7028;DHT22;3555;53.248;10.336;2023-10-19T02:32:45;7.40;1.00
7028;DHT22;3555;53.248;10.336;2023-10-19T02:35:14;7.40;1.00
7028;DHT22;3555;53.248;10.336;2023-10-19T02:37:41;7.40;1.00
7028;DHT22;3555;53.248;10.336;2023-10-19T02:40:07;7.40;99.90
7028;DHT22;3555;53.248;10.336;2023-10-19T02:42:45;7.40;59.90
7028;DHT22;3555;53.248;10.336;2023-10-19T02:45:14;7.50;99.90
7028;DHT22;3555;53.248;10.336;2023-10-19T02:47:44;7.50;99.90
7028;DHT22;3555;53.248;10.336;2023-10-19T02:50:12;7.50;99.90
7028;DHT22;3555;53.248;10.336;2023-10-19T02:52:41;7.40;99.90
7028;DHT22;3555;53.248;10.336;2023-10-19T02:55:09;7.40;99.90
7028;DHT22;3555;53.248;10.336;2023-10-19T02:57:36;7.30;99.90
7028;DHT22;3555;53.248;10.336;2023-10-19T03:00:05;7.20;99.90
7028;DHT22;3555;53.248;10.336;2023-10-19T03:02:37;7.20;99.90
7028;DHT22;3555;53.248;10.336;2023-10-19T03:05:06;7.20;99.90
7028;DHT22;3555;53.248;10.336;2023-10-19T03:07:39;7.10;99.90
7028;DHT22;3555;53.248;10.336;2023-10-19T03:10:07;7.10;99.90
7028;DHT22;3555;53.248;10.336;2023-10-19T03:12:48;7.10;99.90
7028;DHT22;3555;53.248;10.336;2023-10-19T03:15:15;7.00;99.90
7028;DHT22;3555;53.248;10.336;2023-10-19T03:17:43;7.00;99.90
7028;DHT22;3555;53.248;10.336;2023-10-19T03:20:11;7.00;99.90
7028;DHT22;3555;53.248;10.336;2023-10-19T03:22:38;7.00;99.90
7028;DHT22;3555;53.248;10.336;2023-10-19T03:25:04;7.00;99.90
7028;DHT22;3555;53.248;10.336;2023-10-19T03:27:58;6.90;99.90
7028;DHT22;3555;53.248;10.336;2023-10-19T03:30:31;7.00;99.90
7028;DHT22;3555;53.248;10.336;2023-10-19T03:32:58;7.00;99.90
7028;DHT22;3555;53.248;10.336;2023-10-19T03:35:28;6.90;99.90
7028;DHT22;3555;53.248;10.336;2023-10-19T03:37:54;6.90;99.90
7028;DHT22;3555;53.248;10.336;2023-10-19T03:40:24;6.80;99.90
7028;DHT22;3555;53.248;10.336;2023-10-19T03:42:55;6.80;99.90
7028;DHT22;3555;53.248;10.336;2023-10-19T03:45:22;6.80;99.90
7028;DHT22;3555;53.248;10.336;2023-10-19T03:47:51;6.80;99.90
7028;DHT22;3555;53.248;10.336;2023-10-19T03:50:21;6.70;99.90
7028;DHT22;3555;53.248;10.336;2023-10-19T03:52:50;6.80;99.90
7028;DHT22;3555;53.248;10.336;2023-10-19T03:55:17;6.80;99.90
7028;DHT22;3555;53.248;10.336;2023-10-19T03:57:45;6.80;99.90
7028;DHT22;3555;53.248;10.336;2023-10-19T04:00:16;6.80;99.90
7028;DHT22;3555;53.248;10.336;2023-10-19T04:02:44;6.70;99.90
7028;DHT22;3555;53.248;10.336;2023-10-19T04:05:12;6.70;99.90
7028;DHT22;3555;53.248;10.336;2023-10-19T04:07:47;6.70;99.90
7028;DHT22;3555;53.248;10.336;2023-10-19T04:10:21;6.60;99.90
7028;DHT22;3555;53.248;10.336;2023-10-19T04:13:04;6.70;99.90
7028;DHT22;3555;53.248;10.336;2023-10-19T04:15:36;6.60;99.90
7028;DHT22;3555;53.248;10.336;2023-10-19T04:18:03;6.60;99.90
7028;DHT22;3555;53.248;10.336;2023-10-19T04:20:36;7.10;99.90
7028;DHT22;3555;53.248;10.336;2023-10-19T04:23:20;6.50;99.90
7028;DHT22;3555;53.248;10.336;2023-10-19T04:25:49;6.50;99.90
7028;DHT22;3555;53.248;10.336;2023-10-19T04:28:16;6.50;99.90
7028;DHT22;3555;53.248;10.336;2023-10-19T04:30:46;6.50;99.90
7028;DHT22;3555;53.248;10.336;2023-10-19T04:33:14;6.50;99.90
7028;DHT22;3555;53.248;10.336;2023-10-19T04:35:42;6.40;99.90
7028;DHT22;3555;53.248;10.336;2023-10-19T04:38:09;6.50;99.90
7028;DHT22;3555;53.248;10.336;2023-10-19T04:40:36;6.40;99.90
7028;DHT22;3555;53.248;10.336;2023-10-19T04:43:04;6.30;99.90
7028;DHT22;3555;53.248;10.336;2023-10-19T04:45:31;6.30;99.90
7028;DHT22;3555;53.248;10.336;2023-10-19T04:47:58;6.30;99.90
7028;DHT22;3555;53.248;10.336;2023-10-19T04:50:25;6.30;99.90
7028;DHT22;3555;53.248;10.336;2023-10-19T04:52:52;6.40;99.90
7028;DHT22;3555;53.248;10.336;2023-10-19T04:55:19;6.30;99.90
7028;DHT22;3555;53.248;10.336;2023-10-19T04:57:46;6.30;99.90
7028;DHT22;3555;53.248;10.336;2023-10-19T05:00:15;6.30;99.90
7028;DHT22;3555;53.248;10.336;2023-10-19T05:02:42;6.30;99.90
7028;DHT22;3555;53.248;10.336;2023-10-19T05:05:09;6.30;99.90
7028;DHT22;3555;53.248;10.336;2023-10-19T05:07:36;6.20;99.90
7028;DHT22;3555;53.248;10.336;2023-10-19T05:10:04;6.20;99.90
7028;DHT22;3555;53.248;10.336;2023-10-19T05:12:32;6.20;99.90
7028;DHT22;3555;53.248;10.336;2023-10-19T05:14:59;6.30;99.90
7028;DHT22;3555;53.248;10.336;2023-10-19T05:17:27;6.20;99.90
7028;DHT22;3555;53.248;10.336;2023-10-19T05:19:54;6.30;99.90
7028;DHT22;3555;53.248;10.336;2023-10-19T05:22:21;6.30;99.90
7028;DHT22;3555;53.248;10.336;2023-10-19T05:24:50;6.30;99.90
7028;DHT22;3555;53.248;10.336;2023-10-19T05:27:17;6.30;99.90
7028;DHT22;3555;53.248;10.336;2023-10-19T05:29:45;6.20;99.90
7028;DHT22;3555;53.248;10.336;2023-10-19T05:32:12;6.20;99.90
7028;DHT22;3555;53.248;10.336;2023-10-19T05:34:40;6.20;99.90
7028;DHT22;3555;53.248;10.336;2023-10-19T05:37:07;6.20;99.90
7028;DHT22;3555;53.248;10.336;2023-10-19T05:39:34;6.20;99.90
7028;DHT22;3555;53.248;10.336;2023-10-19T05:42:02;6.20;99.90
7028;DHT22;3555;53.248;10.336;2023-10-19T05:44:30;6.20;99.90
7028;DHT22;3555;53.248;10.336;2023-10-19T05:46:57;6.20;99.90
7028;DHT22;3555;53.248;10.336;2023-10-19T05:49:24;6.20;99.90
7028;DHT22;3555;53.248;10.336;2023-10-19T05:51:52;6.20;99.90
7028;DHT22;3555;53.248;10.336;2023-10-19T05:54:19;6.10;99.90
7028;DHT22;3555;53.248;10.336;2023-10-19T05:56:49;6.20;99.90
7028;DHT22;3555;53.248;10.336;2023-10-19T05:59:16;6.20;99.90
7028;DHT22;3555;53.248;10.336;2023-10-19T06:01:43;6.20;99.90
7028;DHT22;3555;53.248;10.336;2023-10-19T06:04:12;6.30;99.90
7028;DHT22;3555;53.248;10.336;2023-10-19T06:06:39;6.30;99.90
7028;DHT22;3555;53.248;10.336;2023-10-19T06:09:07;6.30;99.90
7028;DHT22;3555;53.248;10.336;2023-10-19T06:11:35;6.30;99.90
7028;DHT22;3555;53.248;10.336;2023-10-19T06:14:03;6.20;99.90
7028;DHT22;3555;53.248;10.336;2023-10-19T06:16:32;6.20;99.90
7028;DHT22;3555;53.248;10.336;2023-10-19T06:18:59;6.30;99.90
7028;DHT22;3555;53.248;10.336;2023-10-19T06:21:26;6.20;99.90
7028;DHT22;3555;53.248;10.336;2023-10-19T06:23:53;6.30;99.90
7028;DHT22;3555;53.248;10.336;2023-10-19T06:26:22;6.30;99.90
7028;DHT22;3555;53.248;10.336;2023-10-19T06:28:49;6.20;99.90
7028;DHT22;3555;53.248;10.336;2023-10-19T06:31:16;6.30;99.90
7028;DHT22;3555;53.248;10.336;2023-10-19T06:33:44;6.40;99.90
7028;DHT22;3555;53.248;10.336;2023-10-19T06:36:11;6.30;99.90
7028;DHT22;3555;53.248;10.336;2023-10-19T06:38:38;6.30;99.90
7028;DHT22;3555;53.248;10.336;2023-10-19T06:41:12;6.40;99.90
7028;DHT22;3555;53.248;10.336;2023-10-19T06:43:40;6.40;99.90
7028;DHT22;3555;53.248;10.336;2023-10-19T06:46:08;6.40;99.90
7028;DHT22;3555;53.248;10.336;2023-10-19T06:48:37;6.40;99.90
7028;DHT22;3555;53.248;10.336;2023-10-19T06:51:03;6.40;99.90
7028;DHT22;3555;53.248;10.336;2023-10-19T06:53:31;6.40;99.90
7028;DHT22;3555;53.248;10.336;2023-10-19T06:55:59;6.40;99.90
7028;DHT22;3555;53.248;10.336;2023-10-19T06:58:26;6.40;99.90
7028;DHT22;3555;53.248;10.336;2023-10-19T07:00:54;6.40;99.90
7028;DHT22;3555;53.248;10.336;2023-10-19T07:03:25;6.40;99.90
7028;DHT22;3555;53.248;10.336;2023-10-19T07:05:54;6.40;99.90
7028;DHT22;3555;53.248;10.336;2023-10-19T07:08:22;6.40;99.90
7028;DHT22;3555;53.248;10.336;2023-10-19T07:10:49;6.40;99.90
7028;DHT22;3555;53.248;10.336;2023-10-19T07:13:16;6.50;99.90
7028;DHT22;3555;53.248;10.336;2023-10-19T07:15:45;6.40;99.90
7028;DHT22;3555;53.248;10.336;2023-10-19T07:18:13;6.40;99.90
7028;DHT22;3555;53.248;10.336;2023-10-19T07:20:40;6.40;99.90
7028;DHT22;3555;53.248;10.336;2023-10-19T07:23:08;6.50;99.90
7028;DHT22;3555;53.248;10.336;2023-10-19T07:25:44;6.40;99.90
7028;DHT22;3555;53.248;10.336;2023-10-19T07:28:11;6.50;99.90
7028;DHT22;3555;53.248;10.336;2023-10-19T07:30:40;6.50;99.90
7028;DHT22;3555;53.248;10.336;2023-10-19T07:33:07;6.50;99.90
7028;DHT22;3555;53.248;10.336;2023-10-19T07:35:37;6.40;99.90
7028;DHT22;3555;53.248;10.336;2023-10-19T07:38:04;6.40;99.90
7028;DHT22;3555;53.248;10.336;2023-10-19T07:40:33;6.50;99.90
7028;DHT22;3555;53.248;10.336;2023-10-19T07:43:00;6.40;99.90
7028;DHT22;3555;53.248;10.336;2023-10-19T07:45:29;6.50;99.90
7028;DHT22;3555;53.248;10.336;2023-10-19T07:47:57;6.50;99.90
7028;DHT22;3555;53.248;10.336;2023-10-19T07:50:31;6.50;99.90
7028;DHT22;3555;53.248;10.336;2023-10-19T07:52:59;6.50;99.90
7028;DHT22;3555;53.248;10.336;2023-10-19T07:55:27;6.60;99.90
7028;DHT22;3555;53.248;10.336;2023-10-19T07:57:54;6.50;99.90
7028;DHT22;3555;53.248;10.336;2023-10-19T08:00:22;6.50;99.90
7028;DHT22;3555;53.248;10.336;2023-10-19T08:02:50;6.50;99.90
7028;DHT22;3555;53.248;10.336;2023-10-19T08:05:19;6.50;99.90
7028;DHT22;3555;53.248;10.336;2023-10-19T08:07:46;6.50;99.90
7028;DHT22;3555;53.248;10.336;2023-10-19T08:10:16;6.50;99.90
7028;DHT22;3555;53.248;10.336;2023-10-19T08:12:44;6.40;99.90
7028;DHT22;3555;53.248;10.336;2023-10-19T08:15:13;6.50;99.90
7028;DHT22;3555;53.248;10.336;2023-10-19T08:17:42;6.50;99.90
7028;DHT22;3555;53.248;10.336;2023-10-19T08:20:11;6.60;99.90
7028;DHT22;3555;53.248;10.336;2023-10-19T08:22:42;6.90;99.90
7028;DHT22;3555;53.248;10.336;2023-10-19T08:25:09;6.60;99.90
7028;DHT22;3555;53.248;10.336;2023-10-19T08:27:40;6.60;99.90
7028;DHT22;3555;53.248;10.336;2023-10-19T08:30:10;6.60;99.90
7028;DHT22;3555;53.248;10.336;2023-10-19T08:32:38;6.60;99.90
7028;DHT22;3555;53.248;10.336;2023-10-19T08:35:06;6.50;99.90
7028;DHT22;3555;53.248;10.336;2023-10-19T08:37:33;6.60;99.90
7028;DHT22;3555;53.248;10.336;2023-10-19T08:40:00;6.50;99.90
7028;DHT22;3555;53.248;10.336;2023-10-19T08:42:27;6.50;99.90
7028;DHT22;3555;53.248;10.336;2023-10-19T08:44:57;6.60;99.90
7028;DHT22;3555;53.248;10.336;2023-10-19T08:47:25;6.50;99.90
7028;DHT22;3555;53.248;10.336;2023-10-19T08:49:53;6.50;99.90
7028;DHT22;3555;53.248;10.336;2023-10-19T08:52:21;6.60;99.90
7028;DHT22;3555;53.248;10.336;2023-10-19T08:54:49;6.60;99.90
7028;DHT22;3555;53.248;10.336;2023-10-19T08:57:16;6.50;99.90
7028;DHT22;3555;53.248;10.336;2023-10-19T08:59:44;6.50;99.90
7028;DHT22;3555;53.248;10.336;2023-10-19T09:02:14;6.50;99.90
7028;DHT22;3555;53.248;10.336;2023-10-19T09:04:42;6.60;99.90
7028;DHT22;3555;53.248;10.336;2023-10-19T09:07:09;6.60;99.90
7028;DHT22;3555;53.248;10.336;2023-10-19T09:09:37;6.60;99.90
7028;DHT22;3555;53.248;10.336;2023-10-19T09:12:06;6.60;99.90
7028;DHT22;3555;53.248;10.336;2023-10-19T09:14:34;6.60;99.90
7028;DHT22;3555;53.248;10.336;2023-10-19T09:17:05;6.50;99.90
7028;DHT22;3555;53.248;10.336;2023-10-19T09:19:38;6.50;99.90
7028;DHT22;3555;53.248;10.336;2023-10-19T09:22:05;6.50;99.90
7028;DHT22;3555;53.248;10.336;2023-10-19T09:24:42;6.60;99.90
7028;DHT22;3555;53.248;10.336;2023-10-19T09:27:10;6.60;99.90
7028;DHT22;3555;53.248;10.336;2023-10-19T09:29:38;6.60;99.90
7028;DHT22;3555;53.248;10.336;2023-10-19T09:32:07;6.60;99.90
7028;DHT22;3555;53.248;10.336;2023-10-19T09:34:36;6.60;99.90
7028;DHT22;3555;53.248;10.336;2023-10-19T09:37:04;6.80;99.90
7028;DHT22;3555;53.248;10.336;2023-10-19T09:39:32;6.60;99.90
7028;DHT22;3555;53.248;10.336;2023-10-19T09:42:02;6.70;99.90
7028;DHT22;3555;53.248;10.336;2023-10-19T09:44:34;6.70;99.90
7028;DHT22;3555;53.248;10.336;2023-10-19T09:47:08;6.70;99.90
7028;DHT22;3555;53.248;10.336;2023-10-19T09:49:38;6.70;99.90
7028;DHT22;3555;53.248;10.336;2023-10-19T09:52:05;6.80;99.90
7028;DHT22;3555;53.248;10.336;2023-10-19T09:54:41;6.70;99.90
7028;DHT22;3555;53.248;10.336;2023-10-19T09:57:14;6.70;99.90
7028;DHT22;3555;53.248;10.336;2023-10-19T09:59:46;6.60;99.90
7028;DHT22;3555;53.248;10.336;2023-10-19T10:02:16;6.60;99.90
7028;DHT22;3555;53.248;10.336;2023-10-19T10:04:46;6.50;99.90
7028;DHT22;3555;53.248;10.336;2023-10-19T10:07:14;6.50;99.90
7028;DHT22;3555;53.248;10.336;2023-10-19T10:09:42;6.60;99.90
7028;DHT22;3555;53.248;10.336;2023-10-19T10:12:18;6.60;99.90
7028;DHT22;3555;53.248;10.336;2023-10-19T10:14:55;6.60;99.90
7028;DHT22;3555;53.248;10.336;2023-10-19T10:17:24;6.70;99.90
7028;DHT22;3555;53.248;10.336;2023-10-19T10:19:55;6.60;99.90
7028;DHT22;3555;53.248;10.336;2023-10-19T10:22:25;6.60;99.90
7028;DHT22;3555;53.248;10.336;2023-10-19T10:24:56;6.50;99.90
7028;DHT22;3555;53.248;10.336;2023-10-19T10:27:23;6.60;99.90
7028;DHT22;3555;53.248;10.336;2023-10-19T10:29:56;6.50;99.90
7028;DHT22;3555;53.248;10.336;2023-10-19T10:32:42;6.70;99.90
7028;DHT22;3555;53.248;10.336;2023-10-19T10:38:16;6.70;99.90
7028;DHT22;3555;53.248;10.336;2023-10-19T10:40:43;6.70;99.90
7028;DHT22;3555;53.248;10.336;2023-10-19T10:43:11;6.70;99.90
7028;DHT22;3555;53.248;10.336;2023-10-19T10:45:38;6.70;99.90
7028;DHT22;3555;53.248;10.336;2023-10-19T10:48:11;6.80;99.90
7028;DHT22;3555;53.248;10.336;2023-10-19T10:50:40;6.80;99.90
7028;DHT22;3555;53.248;10.336;2023-10-19T10:53:07;6.80;99.90
7028;DHT22;3555;53.248;10.336;2023-10-19T10:55:34;6.80;99.90
7028;DHT22;3555;53.248;10.336;2023-10-19T10:58:01;6.80;99.90
7028;DHT22;3555;53.248;10.336;2023-10-19T11:00:28;6.80;99.90
7028;DHT22;3555;53.248;10.336;2023-10-19T11:03:07;6.80;99.90
7028;DHT22;3555;53.248;10.336;2023-10-19T11:05:35;6.80;99.90
7028;DHT22;3555;53.248;10.336;2023-10-19T11:08:06;6.70;99.90
7028;DHT22;3555;53.248;10.336;2023-10-19T11:10:34;6.80;99.90
7028;DHT22;3555;53.248;10.336;2023-10-19T11:13:02;6.90;99.90
7028;DHT22;3555;53.248;10.336;2023-10-19T11:15:29;6.90;99.90
7028;DHT22;3555;53.248;10.336;2023-10-19T11:17:56;6.80;99.90
7028;DHT22;3555;53.248;10.336;2023-10-19T11:20:25;6.80;99.90
7028;DHT22;3555;53.248;10.336;2023-10-19T11:22:53;6.80;99.90
7028;DHT22;3555;53.248;10.336;2023-10-19T11:25:25;6.80;99.90
7028;DHT22;3555;53.248;10.336;2023-10-19T11:27:54;6.70;99.90
7028;DHT22;3555;53.248;10.336;2023-10-19T11:30:24;6.70;99.90
7028;DHT22;3555;53.248;10.336;2023-10-19T11:32:52;6.80;99.90
7028;DHT22;3555;53.248;10.336;2023-10-19T11:35:23;6.80;99.90
7028;DHT22;3555;53.248;10.336;2023-10-19T11:37:51;6.80;99.90
7028;DHT22;3555;53.248;10.336;2023-10-19T11:40:20;6.80;99.90
7028;DHT22;3555;53.248;10.336;2023-10-19T11:42:48;6.90;99.90
7028;DHT22;3555;53.248;10.336;2023-10-19T11:45:16;6.80;99.90
7028;DHT22;3555;53.248;10.336;2023-10-19T11:47:43;6.80;99.90
7028;DHT22;3555;53.248;10.336;2023-10-19T11:50:10;6.80;99.90
7028;DHT22;3555;53.248;10.336;2023-10-19T11:52:41;6.90;99.90
7028;DHT22;3555;53.248;10.336;2023-10-19T11:55:08;6.90;99.90
7028;DHT22;3555;53.248;10.336;2023-10-19T11:57:35;6.90;99.90
7028;DHT22;3555;53.248;10.336;2023-10-19T12:00:04;6.90;99.90
7028;DHT22;3555;53.248;10.336;2023-10-19T12:02:35;6.80;99.90
7028;DHT22;3555;53.248;10.336;2023-10-19T12:05:04;6.80;99.90
7028;DHT22;3555;53.248;10.336;2023-10-19T12:07:35;6.80;99.90
7028;DHT22;3555;53.248;10.336;2023-10-19T12:10:03;6.80;99.90
7028;DHT22;3555;53.248;10.336;2023-10-19T12:12:30;6.80;99.90
7028;DHT22;3555;53.248;10.336;2023-10-19T12:14:57;6.80;99.90
7028;DHT22;3555;53.248;10.336;2023-10-19T12:17:26;6.80;99.90
7028;DHT22;3555;53.248;10.336;2023-10-19T12:19:53;6.70;99.90
7028;DHT22;3555;53.248;10.336;2023-10-19T12:22:21;6.30;99.90
7028;DHT22;3555;53.248;10.336;2023-10-19T12:24:49;6.70;99.90
7028;DHT22;3555;53.248;10.336;2023-10-19T12:27:17;6.70;99.90
7028;DHT22;3555;53.248;10.336;2023-10-19T12:29:44;6.70;99.90
7028;DHT22;3555;53.248;10.336;2023-10-19T12:32:11;6.80;99.90
7028;DHT22;3555;53.248;10.336;2023-10-19T12:34:41;6.70;99.90
7028;DHT22;3555;53.248;10.336;2023-10-19T12:37:09;6.90;99.90
7028;DHT22;3555;53.248;10.336;2023-10-19T12:39:38;6.80;99.90
7028;DHT22;3555;53.248;10.336;2023-10-19T12:42:11;6.80;99.90
7028;DHT22;3555;53.248;10.336;2023-10-19T12:44:39;6.80;99.90
7028;DHT22;3555;53.248;10.336;2023-10-19T12:47:07;6.70;99.90
7028;DHT22;3555;53.248;10.336;2023-10-19T12:49:36;6.70;99.90
7028;DHT22;3555;53.248;10.336;2023-10-19T12:52:05;6.70;99.90
7028;DHT22;3555;53.248;10.336;2023-10-19T12:54:32;6.70;99.90
7028;DHT22;3555;53.248;10.336;2023-10-19T12:57:00;6.80;99.90
7028;DHT22;3555;53.248;10.336;2023-10-19T12:59:29;6.70;99.90
7028;DHT22;3555;53.248;10.336;2023-10-19T13:01:57;6.70;99.90
7028;DHT22;3555;53.248;10.336;2023-10-19T13:04:24;6.60;99.90
7028;DHT22;3555;53.248;10.336;2023-10-19T13:06:55;6.60;99.90
7028;DHT22;3555;53.248;10.336;2023-10-19T13:09:24;6.60;99.90
7028;DHT22;3555;53.248;10.336;2023-10-19T13:11:57;6.70;99.90
7028;DHT22;3555;53.248;10.336;2023-10-19T13:14:24;6.70;99.90
7028;DHT22;3555;53.248;10.336;2023-10-19T13:16:51;6.70;99.90
7028;DHT22;3555;53.248;10.336;2023-10-19T13:19:19;6.80;99.90
7028;DHT22;3555;53.248;10.336;2023-10-19T13:21:50;6.80;99.90
7028;DHT22;3555;53.248;10.336;2023-10-19T13:24:18;6.80;99.90
7028;DHT22;3555;53.248;10.336;2023-10-19T13:26:47;6.90;99.90
7028;DHT22;3555;53.248;10.336;2023-10-19T13:29:14;6.90;99.90
7028;DHT22;3555;53.248;10.336;2023-10-19T13:31:42;6.90;99.90
7028;DHT22;3555;53.248;10.336;2023-10-19T13:34:15;6.70;99.90
7028;DHT22;3555;53.248;10.336;2023-10-19T13:36:42;6.70;99.90
7028;DHT22;3555;53.248;10.336;2023-10-19T13:39:10;6.70;99.90
7028;DHT22;3555;53.248;10.336;2023-10-19T13:41:42;6.70;99.90
7028;DHT22;3555;53.248;10.336;2023-10-19T13:44:10;6.80;99.90
7028;DHT22;3555;53.248;10.336;2023-10-19T13:46:38;6.70;99.90
7028;DHT22;3555;53.248;10.336;2023-10-19T13:49:05;6.70;99.90
7028;DHT22;3555;53.248;10.336;2023-10-19T13:51:32;6.70;99.90
7028;DHT22;3555;53.248;10.336;2023-10-19T13:53:59;6.80;99.90
7028;DHT22;3555;53.248;10.336;2023-10-19T13:56:27;6.70;99.90
7028;DHT22;3555;53.248;10.336;2023-10-19T13:58:54;6.70;99.90
7028;DHT22;3555;53.248;10.336;2023-10-19T14:01:22;6.80;99.90
7028;DHT22;3555;53.248;10.336;2023-10-19T14:03:51;6.80;99.90
7028;DHT22;3555;53.248;10.336;2023-10-19T14:06:20;6.80;99.90
7028;DHT22;3555;53.248;10.336;2023-10-19T14:08:47;6.80;99.90
7028;DHT22;3555;53.248;10.336;2023-10-19T14:11:14;6.80;99.90
7028;DHT22;3555;53.248;10.336;2023-10-19T14:13:41;6.80;99.90
7028;DHT22;3555;53.248;10.336;2023-10-19T14:16:09;6.80;99.90
7028;DHT22;3555;53.248;10.336;2023-10-19T14:18:37;6.80;99.90
7028;DHT22;3555;53.248;10.336;2023-10-19T14:21:11;6.80;99.90
7028;DHT22;3555;53.248;10.336;2023-10-19T14:23:39;6.80;99.90
7028;DHT22;3555;53.248;10.336;2023-10-19T14:26:06;6.80;99.90
7028;DHT22;3555;53.248;10.336;2023-10-19T14:28:34;6.80;99.90
7028;DHT22;3555;53.248;10.336;2023-10-19T14:31:02;6.80;99.90
7028;DHT22;3555;53.248;10.336;2023-10-19T14:33:30;6.80;99.90
7028;DHT22;3555;53.248;10.336;2023-10-19T14:35:58;6.70;99.90
7028;DHT22;3555;53.248;10.336;2023-10-19T14:38:25;6.80;99.90
7028;DHT22;3555;53.248;10.336;2023-10-19T14:40:53;6.90;99.90
7028;DHT22;3555;53.248;10.336;2023-10-19T14:43:20;6.80;99.90
7028;DHT22;3555;53.248;10.336;2023-10-19T14:45:46;6.80;99.90
7028;DHT22;3555;53.248;10.336;2023-10-19T14:48:13;6.80;99.90
7028;DHT22;3555;53.248;10.336;2023-10-19T14:50:42;6.80;99.90
7028;DHT22;3555;53.248;10.336;2023-10-19T14:53:11;6.80;99.90
7028;DHT22;3555;53.248;10.336;2023-10-19T14:55:38;6.80;99.90
7028;DHT22;3555;53.248;10.336;2023-10-19T14:58:05;6.80;99.90
7028;DHT22;3555;53.248;10.336;2023-10-19T15:00:32;6.90;99.90
7028;DHT22;3555;53.248;10.336;2023-10-19T15:03:01;6.90;99.90
7028;DHT22;3555;53.248;10.336;2023-10-19T15:05:32;7.40;99.90
7028;DHT22;3555;53.248;10.336;2023-10-19T15:08:01;6.80;99.90
7028;DHT22;3555;53.248;10.336;2023-10-19T15:10:31;6.90;99.90
7028;DHT22;3555;53.248;10.336;2023-10-19T15:12:58;6.90;99.90
7028;DHT22;3555;53.248;10.336;2023-10-19T15:15:26;6.90;99.90
7028;DHT22;3555;53.248;10.336;2023-10-19T15:17:53;6.90;99.90
7028;DHT22;3555;53.248;10.336;2023-10-19T15:20:24;6.80;99.90
7028;DHT22;3555;53.248;10.336;2023-10-19T15:22:51;6.80;99.90
7028;DHT22;3555;53.248;10.336;2023-10-19T15:25:19;6.80;99.90
7028;DHT22;3555;53.248;10.336;2023-10-19T15:27:50;6.80;99.90
7028;DHT22;3555;53.248;10.336;2023-10-19T15:30:18;6.90;99.90
7028;DHT22;3555;53.248;10.336;2023-10-19T15:32:46;6.90;99.90
7028;DHT22;3555;53.248;10.336;2023-10-19T15:35:14;6.90;99.90
7028;DHT22;3555;53.248;10.336;2023-10-19T15:37:46;6.80;99.90
7028;DHT22;3555;53.248;10.336;2023-10-19T15:40:14;6.90;99.90
7028;DHT22;3555;53.248;10.336;2023-10-19T15:42:42;6.90;99.90
7028;DHT22;3555;53.248;10.336;2023-10-19T15:45:11;6.80;99.90
7028;DHT22;3555;53.248;10.336;2023-10-19T15:47:38;6.80;99.90
7028;DHT22;3555;53.248;10.336;2023-10-19T15:50:07;7.00;99.90
7028;DHT22;3555;53.248;10.336;2023-10-19T15:52:35;6.80;99.90
7028;DHT22;3555;53.248;10.336;2023-10-19T15:55:07;6.80;99.90
7028;DHT22;3555;53.248;10.336;2023-10-19T15:57:34;6.80;99.90
7028;DHT22;3555;53.248;10.336;2023-10-19T16:00:01;7.00;99.90
7028;DHT22;3555;53.248;10.336;2023-10-19T16:02:29;7.00;99.90
7028;DHT22;3555;53.248;10.336;2023-10-19T16:04:56;6.90;99.90
7028;DHT22;3555;53.248;10.336;2023-10-19T16:07:23;7.00;99.90
7028;DHT22;3555;53.248;10.336;2023-10-19T16:09:50;7.00;99.90
7028;DHT22;3555;53.248;10.336;2023-10-19T16:12:17;7.00;99.90
7028;DHT22;3555;53.248;10.336;2023-10-19T16:14:44;7.00;99.90
7028;DHT22;3555;53.248;10.336;2023-10-19T16:17:10;7.00;99.90